sensor_id;sensor_type;location;lat;lon;timestamp;pressure;altitude;pressure_sealevel;temperature;humidity
50682;BME280;36779;52.168;20.878;2023-04-15T00:01:14;99693.39;;;9.92;61.92
50682;BME280;36779;52.168;20.878;2023-04-15T00:03:52;99694.77;;;9.93;61.95
50682;BME280;36779;52.168;20.878;2023-04-15T00:06:27;99692.01;;;9.92;62.04
50682;BME280;36779;52.168;20.878;2023-04-15T00:08:59;99694.28;;;9.91;61.98
50682;BME280;36779;52.168;20.878;2023-04-15T00:11:31;99693.38;;;9.91;61.99
50682;BME280;36779;52.168;20.878;2023-04-15T00:14:03;99694.29;;;9.89;61.94
50682;BME280;36779;52.168;20.878;2023-04-15T00:16:37;99693.88;;;9.85;62.06
50682;BME280;36779;52.168;20.878;2023-04-15T00:19:09;99694.58;;;9.84;61.97
50682;BME280;36779;52.168;20.878;2023-04-15T00:21:42;99696.16;;;9.80;61.98
50682;BME280;36779;52.168;20.878;2023-04-15T00:24:14;99694.48;;;9.77;62.04
50682;BME280;36779;52.168;20.878;2023-04-15T00:26:46;99693.66;;;9.75;61.99
50682;BME280;36779;52.168;20.878;2023-04-15T00:29:18;99692.67;;;9.73;62.02
50682;BME280;36779;52.168;20.878;2023-04-15T00:31:50;99691.42;;;9.69;62.05
50682;BME280;36779;52.168;20.878;2023-04-15T00:34:23;99690.90;;;9.68;62.17
50682;BME280;36779;52.168;20.878;2023-04-15T00:36:56;99686.91;;;9.65;62.06
50682;BME280;36779;52.168;20.878;2023-04-15T00:39:28;99687.34;;;9.60;62.12
50682;BME280;36779;52.168;20.878;2023-04-15T00:42:01;99685.79;;;9.56;62.14
50682;BME280;36779;52.168;20.878;2023-04-15T00:47:06;99684.65;;;9.49;62.36
50682;BME280;36779;52.168;20.878;2023-04-15T00:49:38;99687.41;;;9.47;62.40
50682;BME280;36779;52.168;20.878;2023-04-15T00:52:11;99687.23;;;9.45;62.42
50682;BME280;36779;52.168;20.878;2023-04-15T00:54:44;99685.06;;;9.42;62.35
50682;BME280;36779;52.168;20.878;2023-04-15T00:57:16;99685.39;;;9.37;62.33
50682;BME280;36779;52.168;20.878;2023-04-15T00:59:49;99688.17;;;9.33;62.40
50682;BME280;36779;52.168;20.878;2023-04-15T01:02:23;99685.89;;;9.28;62.48
50682;BME280;36779;52.168;20.878;2023-04-15T01:04:58;99686.23;;;9.26;62.45
50682;BME280;36779;52.168;20.878;2023-04-15T01:07:31;99689.13;;;9.23;62.69
50682;BME280;36779;52.168;20.878;2023-04-15T01:10:03;99686.08;;;9.20;62.61
50682;BME280;36779;52.168;20.878;2023-04-15T01:12:36;99685.31;;;9.19;62.78
50682;BME280;36779;52.168;20.878;2023-04-15T01:15:10;99686.14;;;9.22;62.98
50682;BME280;36779;52.168;20.878;2023-04-15T01:17:43;99688.03;;;9.24;63.00
50682;BME280;36779;52.168;20.878;2023-04-15T01:20:16;99686.50;;;9.25;63.03
50682;BME280;36779;52.168;20.878;2023-04-15T01:22:48;99689.15;;;9.25;62.90
50682;BME280;36779;52.168;20.878;2023-04-15T01:25:25;99691.16;;;9.21;62.90
50682;BME280;36779;52.168;20.878;2023-04-15T01:27:59;99691.42;;;9.18;62.98
50682;BME280;36779;52.168;20.878;2023-04-15T01:30:35;99691.31;;;9.14;62.98
50682;BME280;36779;52.168;20.878;2023-04-15T01:33:08;99693.15;;;9.11;63.07
50682;BME280;36779;52.168;20.878;2023-04-15T01:35:41;99690.12;;;9.09;63.18
50682;BME280;36779;52.168;20.878;2023-04-15T01:38:14;99686.27;;;9.07;63.14
50682;BME280;36779;52.168;20.878;2023-04-15T01:40:48;99689.03;;;9.06;63.23
50682;BME280;36779;52.168;20.878;2023-04-15T01:43:20;99690.00;;;9.07;63.12
50682;BME280;36779;52.168;20.878;2023-04-15T01:45:52;99685.67;;;9.06;63.13
50682;BME280;36779;52.168;20.878;2023-04-15T01:48:27;99687.44;;;9.05;63.29
50682;BME280;36779;52.168;20.878;2023-04-15T01:50:59;99686.20;;;9.03;63.37
50682;BME280;36779;52.168;20.878;2023-04-15T01:53:32;99686.70;;;9.04;63.37
50682;BME280;36779;52.168;20.878;2023-04-15T01:56:06;99684.02;;;9.04;63.31
50682;BME280;36779;52.168;20.878;2023-04-15T01:58:39;99684.78;;;9.03;63.44
50682;BME280;36779;52.168;20.878;2023-04-15T02:01:11;99688.27;;;9.01;63.40
50682;BME280;36779;52.168;20.878;2023-04-15T02:03:45;99688.92;;;8.98;63.56
50682;BME280;36779;52.168;20.878;2023-04-15T02:06:18;99686.87;;;8.94;63.60
50682;BME280;36779;52.168;20.878;2023-04-15T02:08:51;99687.36;;;8.91;63.58
50682;BME280;36779;52.168;20.878;2023-04-15T02:11:23;99681.83;;;8.90;63.77
50682;BME280;36779;52.168;20.878;2023-04-15T02:13:56;99681.38;;;8.91;63.82
50682;BME280;36779;52.168;20.878;2023-04-15T02:16:29;99682.95;;;8.91;63.81
50682;BME280;36779;52.168;20.878;2023-04-15T02:19:01;99679.25;;;8.89;63.85
50682;BME280;36779;52.168;20.878;2023-04-15T02:21:33;99679.59;;;8.86;63.69
50682;BME280;36779;52.168;20.878;2023-04-15T02:24:07;99679.50;;;8.84;63.81
50682;BME280;36779;52.168;20.878;2023-04-15T02:26:39;99678.30;;;8.83;63.88
50682;BME280;36779;52.168;20.878;2023-04-15T02:29:11;99680.51;;;8.81;63.97
50682;BME280;36779;52.168;20.878;2023-04-15T02:31:44;99676.67;;;8.79;64.04
50682;BME280;36779;52.168;20.878;2023-04-15T02:34:16;99678.77;;;8.76;64.06
50682;BME280;36779;52.168;20.878;2023-04-15T02:36:48;99676.36;;;8.73;64.12
50682;BME280;36779;52.168;20.878;2023-04-15T02:39:28;99678.02;;;8.73;64.23
50682;BME280;36779;52.168;20.878;2023-04-15T02:42:00;99676.02;;;8.73;64.24
50682;BME280;36779;52.168;20.878;2023-04-15T02:44:32;99674.11;;;8.73;64.30
50682;BME280;36779;52.168;20.878;2023-04-15T02:47:06;99676.23;;;8.71;64.24
50682;BME280;36779;52.168;20.878;2023-04-15T02:49:39;99675.33;;;8.70;64.43
50682;BME280;36779;52.168;20.878;2023-04-15T02:52:10;99672.90;;;8.71;64.50
50682;BME280;36779;52.168;20.878;2023-04-15T02:54:43;99673.36;;;8.70;64.56
50682;BME280;36779;52.168;20.878;2023-04-15T02:57:15;99671.34;;;8.71;64.55
50682;BME280;36779;52.168;20.878;2023-04-15T02:59:47;99668.81;;;8.71;64.57
50682;BME280;36779;52.168;20.878;2023-04-15T03:05:55;99669.41;;;8.74;64.67
50682;BME280;36779;52.168;20.878;2023-04-15T03:08:27;99673.96;;;8.72;64.73
50682;BME280;36779;52.168;20.878;2023-04-15T03:11:00;99671.66;;;8.71;64.78
50682;BME280;36779;52.168;20.878;2023-04-15T03:13:32;99671.80;;;8.70;64.82
50682;BME280;36779;52.168;20.878;2023-04-15T03:16:11;99672.36;;;8.69;64.99
50682;BME280;36779;52.168;20.878;2023-04-15T03:18:44;99674.13;;;8.69;64.91
50682;BME280;36779;52.168;20.878;2023-04-15T03:21:17;99670.41;;;8.67;64.85
50682;BME280;36779;52.168;20.878;2023-04-15T03:23:51;99671.64;;;8.68;64.94
50682;BME280;36779;52.168;20.878;2023-04-15T03:26:27;99668.33;;;8.67;65.06
50682;BME280;36779;52.168;20.878;2023-04-15T03:29:05;99665.14;;;8.67;65.09
50682;BME280;36779;52.168;20.878;2023-04-15T03:31:38;99671.90;;;8.68;65.09
50682;BME280;36779;52.168;20.878;2023-04-15T03:34:10;99675.63;;;8.70;65.23
50682;BME280;36779;52.168;20.878;2023-04-15T03:36:43;99672.63;;;8.68;65.13
50682;BME280;36779;52.168;20.878;2023-04-15T03:39:15;99670.84;;;8.69;65.22
50682;BME280;36779;52.168;20.878;2023-04-15T03:41:48;99674.75;;;8.68;65.26
50682;BME280;36779;52.168;20.878;2023-04-15T03:44:21;99671.91;;;8.70;65.36
50682;BME280;36779;52.168;20.878;2023-04-15T03:46:53;99677.68;;;8.71;65.35
50682;BME280;36779;52.168;20.878;2023-04-15T03:49:29;99671.87;;;8.72;65.40
50682;BME280;36779;52.168;20.878;2023-04-15T03:52:00;99676.15;;;8.75;65.51
50682;BME280;36779;52.168;20.878;2023-04-15T03:54:32;99674.02;;;8.77;65.42
50682;BME280;36779;52.168;20.878;2023-04-15T03:57:05;99676.42;;;8.80;65.59
50682;BME280;36779;52.168;20.878;2023-04-15T03:59:37;99677.70;;;8.82;65.58
50682;BME280;36779;52.168;20.878;2023-04-15T04:02:09;99678.27;;;8.83;65.64
50682;BME280;36779;52.168;20.878;2023-04-15T04:04:42;99675.67;;;8.83;65.71
50682;BME280;36779;52.168;20.878;2023-04-15T04:07:22;99676.70;;;8.83;65.63
50682;BME280;36779;52.168;20.878;2023-04-15T04:09:55;99680.55;;;8.82;65.61
50682;BME280;36779;52.168;20.878;2023-04-15T04:12:27;99680.23;;;8.80;65.70
50682;BME280;36779;52.168;20.878;2023-04-15T04:14:59;99678.57;;;8.76;65.61
50682;BME280;36779;52.168;20.878;2023-04-15T04:17:31;99680.88;;;8.74;65.68
50682;BME280;36779;52.168;20.878;2023-04-15T04:20:03;99679.88;;;8.74;65.76
50682;BME280;36779;52.168;20.878;2023-04-15T04:22:39;99683.60;;;8.74;65.81
50682;BME280;36779;52.168;20.878;2023-04-15T04:25:11;99681.86;;;8.75;65.73
50682;BME280;36779;52.168;20.878;2023-04-15T04:27:44;99681.30;;;8.77;65.90
50682;BME280;36779;52.168;20.878;2023-04-15T04:30:16;99676.02;;;8.78;65.98
50682;BME280;36779;52.168;20.878;2023-04-15T04:32:50;99682.52;;;8.82;65.95
50682;BME280;36779;52.168;20.878;2023-04-15T04:35:22;99679.92;;;8.83;65.81
50682;BME280;36779;52.168;20.878;2023-04-15T04:37:56;99682.35;;;8.82;65.95
50682;BME280;36779;52.168;20.878;2023-04-15T04:40:28;99685.02;;;8.82;66.00
50682;BME280;36779;52.168;20.878;2023-04-15T04:43:00;99684.05;;;8.81;66.06
50682;BME280;36779;52.168;20.878;2023-04-15T04:45:37;99682.66;;;8.81;66.04
50682;BME280;36779;52.168;20.878;2023-04-15T04:48:09;99681.88;;;8.80;66.15
50682;BME280;36779;52.168;20.878;2023-04-15T04:50:41;99681.59;;;8.81;66.18
50682;BME280;36779;52.168;20.878;2023-04-15T04:53:13;99682.02;;;8.82;66.16
50682;BME280;36779;52.168;20.878;2023-04-15T04:55:45;99680.39;;;8.84;66.26
50682;BME280;36779;52.168;20.878;2023-04-15T04:58:17;99678.86;;;8.86;66.28
50682;BME280;36779;52.168;20.878;2023-04-15T05:00:50;99684.19;;;8.86;66.35
50682;BME280;36779;52.168;20.878;2023-04-15T05:03:22;99678.70;;;8.86;66.39
50682;BME280;36779;52.168;20.878;2023-04-15T05:05:55;99682.21;;;8.88;66.37
50682;BME280;36779;52.168;20.878;2023-04-15T05:08:27;99681.65;;;8.88;66.37
50682;BME280;36779;52.168;20.878;2023-04-15T05:10:59;99681.76;;;8.87;66.32
50682;BME280;36779;52.168;20.878;2023-04-15T05:13:33;99682.75;;;8.86;66.33
50682;BME280;36779;52.168;20.878;2023-04-15T05:16:08;99683.30;;;8.86;66.43
50682;BME280;36779;52.168;20.878;2023-04-15T05:18:40;99685.97;;;8.84;66.46
50682;BME280;36779;52.168;20.878;2023-04-15T05:21:13;99690.80;;;8.81;66.49
50682;BME280;36779;52.168;20.878;2023-04-15T05:23:45;99691.86;;;8.79;66.57
50682;BME280;36779;52.168;20.878;2023-04-15T05:26:17;99691.69;;;8.79;66.58
50682;BME280;36779;52.168;20.878;2023-04-15T05:28:51;99688.38;;;8.79;66.59
50682;BME280;36779;52.168;20.878;2023-04-15T05:31:23;99689.05;;;8.78;66.55
50682;BME280;36779;52.168;20.878;2023-04-15T05:33:58;99685.98;;;8.78;66.58
50682;BME280;36779;52.168;20.878;2023-04-15T05:36:30;99690.55;;;8.78;66.64
50682;BME280;36779;52.168;20.878;2023-04-15T05:39:02;99687.01;;;8.81;66.79
50682;BME280;36779;52.168;20.878;2023-04-15T05:41:34;99690.02;;;8.86;66.87
50682;BME280;36779;52.168;20.878;2023-04-15T05:44:07;99692.22;;;8.89;66.79
50682;BME280;36779;52.168;20.878;2023-04-15T05:46:40;99693.92;;;8.90;66.77
50682;BME280;36779;52.168;20.878;2023-04-15T05:49:12;99696.84;;;8.90;66.78
50682;BME280;36779;52.168;20.878;2023-04-15T05:51:44;99692.71;;;8.92;66.89
50682;BME280;36779;52.168;20.878;2023-04-15T05:54:17;99694.77;;;8.94;66.97
50682;BME280;36779;52.168;20.878;2023-04-15T05:56:50;99695.73;;;8.97;66.85
50682;BME280;36779;52.168;20.878;2023-04-15T05:59:22;99698.27;;;8.97;67.00
50682;BME280;36779;52.168;20.878;2023-04-15T06:01:54;99694.98;;;8.96;66.91
50682;BME280;36779;52.168;20.878;2023-04-15T06:04:31;99698.33;;;8.94;66.87
50682;BME280;36779;52.168;20.878;2023-04-15T06:07:03;99697.09;;;8.94;66.99
50682;BME280;36779;52.168;20.878;2023-04-15T06:09:36;99697.15;;;8.95;67.14
50682;BME280;36779;52.168;20.878;2023-04-15T06:12:08;99696.30;;;8.97;67.08
50682;BME280;36779;52.168;20.878;2023-04-15T06:14:42;99700.52;;;8.97;67.08
50682;BME280;36779;52.168;20.878;2023-04-15T06:17:15;99703.52;;;8.97;67.13
50682;BME280;36779;52.168;20.878;2023-04-15T06:19:48;99703.11;;;8.98;67.04
50682;BME280;36779;52.168;20.878;2023-04-15T06:22:27;99703.70;;;8.97;67.20
50682;BME280;36779;52.168;20.878;2023-04-15T06:24:59;99709.05;;;8.95;67.17
50682;BME280;36779;52.168;20.878;2023-04-15T06:27:34;99710.45;;;8.95;67.19
50682;BME280;36779;52.168;20.878;2023-04-15T06:30:08;99711.14;;;8.99;67.25
50682;BME280;36779;52.168;20.878;2023-04-15T06:32:40;99712.97;;;9.02;67.29
50682;BME280;36779;52.168;20.878;2023-04-15T06:35:12;99713.49;;;9.02;67.30
50682;BME280;36779;52.168;20.878;2023-04-15T06:37:44;99714.14;;;9.01;67.23
50682;BME280;36779;52.168;20.878;2023-04-15T06:40:17;99718.55;;;9.03;67.42
50682;BME280;36779;52.168;20.878;2023-04-15T06:42:49;99720.27;;;9.04;67.45
50682;BME280;36779;52.168;20.878;2023-04-15T06:45:21;99719.02;;;9.05;67.37
50682;BME280;36779;52.168;20.878;2023-04-15T06:47:53;99717.32;;;9.04;67.38
50682;BME280;36779;52.168;20.878;2023-04-15T06:50:25;99722.61;;;9.04;67.43
50682;BME280;36779;52.168;20.878;2023-04-15T06:52:58;99721.09;;;9.05;67.31
50682;BME280;36779;52.168;20.878;2023-04-15T06:55:30;99722.14;;;9.07;67.44
50682;BME280;36779;52.168;20.878;2023-04-15T06:58:03;99724.82;;;9.06;67.48
50682;BME280;36779;52.168;20.878;2023-04-15T07:00:36;99729.67;;;9.08;67.52
50682;BME280;36779;52.168;20.878;2023-04-15T07:03:10;99730.73;;;9.11;67.58
50682;BME280;36779;52.168;20.878;2023-04-15T07:05:43;99732.21;;;9.15;67.62
50682;BME280;36779;52.168;20.878;2023-04-15T07:08:15;99736.01;;;9.19;67.67
50682;BME280;36779;52.168;20.878;2023-04-15T07:10:51;99738.52;;;9.18;67.60
50682;BME280;36779;52.168;20.878;2023-04-15T07:13:24;99738.21;;;9.17;67.56
50682;BME280;36779;52.168;20.878;2023-04-15T07:15:56;99740.10;;;9.17;67.64
50682;BME280;36779;52.168;20.878;2023-04-15T07:18:31;99740.95;;;9.19;67.68
50682;BME280;36779;52.168;20.878;2023-04-15T07:21:03;99748.20;;;9.18;67.57
50682;BME280;36779;52.168;20.878;2023-04-15T07:23:36;99747.40;;;9.18;67.64
50682;BME280;36779;52.168;20.878;2023-04-15T07:26:08;99742.82;;;9.18;67.77
50682;BME280;36779;52.168;20.878;2023-04-15T07:28:41;99743.11;;;9.21;67.77
50682;BME280;36779;52.168;20.878;2023-04-15T07:31:14;99746.80;;;9.19;67.74
50682;BME280;36779;52.168;20.878;2023-04-15T07:33:53;99749.30;;;9.19;67.71
50682;BME280;36779;52.168;20.878;2023-04-15T07:36:49;99747.38;;;9.21;67.84
50682;BME280;36779;52.168;20.878;2023-04-15T07:39:27;99747.07;;;9.20;67.73
50682;BME280;36779;52.168;20.878;2023-04-15T07:42:00;99750.25;;;9.22;67.79
50682;BME280;36779;52.168;20.878;2023-04-15T07:44:32;99747.91;;;9.21;67.76
50682;BME280;36779;52.168;20.878;2023-04-15T07:47:04;99743.98;;;9.25;67.88
50682;BME280;36779;52.168;20.878;2023-04-15T07:49:36;99743.14;;;9.24;67.89
50682;BME280;36779;52.168;20.878;2023-04-15T07:52:08;99741.58;;;9.25;67.90
50682;BME280;36779;52.168;20.878;2023-04-15T07:54:40;99742.04;;;9.29;68.05
50682;BME280;36779;52.168;20.878;2023-04-15T07:57:15;99744.46;;;9.31;68.03
50682;BME280;36779;52.168;20.878;2023-04-15T07:59:48;99742.49;;;9.33;67.96
50682;BME280;36779;52.168;20.878;2023-04-15T08:02:20;99742.98;;;9.33;68.14
50682;BME280;36779;52.168;20.878;2023-04-15T08:04:53;99746.11;;;9.35;68.08
50682;BME280;36779;52.168;20.878;2023-04-15T08:07:25;99746.21;;;9.36;68.03
50682;BME280;36779;52.168;20.878;2023-04-15T08:09:58;99746.98;;;9.37;68.18
50682;BME280;36779;52.168;20.878;2023-04-15T08:12:31;99748.36;;;9.40;68.11
50682;BME280;36779;52.168;20.878;2023-04-15T08:15:04;99744.64;;;9.40;68.01
50682;BME280;36779;52.168;20.878;2023-04-15T08:17:38;99744.77;;;9.43;68.13
50682;BME280;36779;52.168;20.878;2023-04-15T08:20:11;99746.69;;;9.45;68.17
50682;BME280;36779;52.168;20.878;2023-04-15T08:22:44;99751.34;;;9.46;68.13
50682;BME280;36779;52.168;20.878;2023-04-15T08:25:17;99747.02;;;9.46;68.20
50682;BME280;36779;52.168;20.878;2023-04-15T08:27:50;99745.59;;;9.48;68.23
50682;BME280;36779;52.168;20.878;2023-04-15T08:30:22;99749.87;;;9.49;68.13
50682;BME280;36779;52.168;20.878;2023-04-15T08:32:56;99747.64;;;9.50;68.34
50682;BME280;36779;52.168;20.878;2023-04-15T08:35:28;99748.95;;;9.53;68.28
50682;BME280;36779;52.168;20.878;2023-04-15T08:38:00;99747.30;;;9.55;68.20
50682;BME280;36779;52.168;20.878;2023-04-15T08:40:46;99748.75;;;9.58;68.21
50682;BME280;36779;52.168;20.878;2023-04-15T08:43:22;99750.69;;;9.64;68.43
50682;BME280;36779;52.168;20.878;2023-04-15T08:45:56;99748.37;;;9.71;68.35
50682;BME280;36779;52.168;20.878;2023-04-15T08:48:33;99752.11;;;9.75;68.37
50682;BME280;36779;52.168;20.878;2023-04-15T08:51:10;99752.95;;;9.78;68.26
50682;BME280;36779;52.168;20.878;2023-04-15T08:53:46;99755.07;;;9.79;68.47
50682;BME280;36779;52.168;20.878;2023-04-15T08:56:19;99756.27;;;9.84;68.47
50682;BME280;36779;52.168;20.878;2023-04-15T08:58:56;99756.02;;;9.88;68.56
50682;BME280;36779;52.168;20.878;2023-04-15T09:01:29;99752.17;;;9.92;68.38
50682;BME280;36779;52.168;20.878;2023-04-15T09:04:03;99759.80;;;9.94;68.41
50682;BME280;36779;52.168;20.878;2023-04-15T09:06:40;99755.60;;;9.95;68.48
50682;BME280;36779;52.168;20.878;2023-04-15T09:09:12;99752.86;;;9.97;68.43
50682;BME280;36779;52.168;20.878;2023-04-15T09:11:47;99757.98;;;9.96;68.42
50682;BME280;36779;52.168;20.878;2023-04-15T09:14:21;99754.35;;;9.96;68.43
50682;BME280;36779;52.168;20.878;2023-04-15T09:21:41;99755.08;;;10.00;68.50
50682;BME280;36779;52.168;20.878;2023-04-15T09:24:13;99752.55;;;10.03;68.60
50682;BME280;36779;52.168;20.878;2023-04-15T09:26:48;99752.85;;;10.05;68.55
50682;BME280;36779;52.168;20.878;2023-04-15T09:29:27;99758.63;;;10.10;68.66
50682;BME280;36779;52.168;20.878;2023-04-15T09:32:10;99756.85;;;10.15;68.63
50682;BME280;36779;52.168;20.878;2023-04-15T09:34:42;99758.78;;;10.15;68.69
50682;BME280;36779;52.168;20.878;2023-04-15T09:37:15;99758.90;;;10.14;68.55
50682;BME280;36779;52.168;20.878;2023-04-15T09:40:01;99760.75;;;10.15;68.52
50682;BME280;36779;52.168;20.878;2023-04-15T09:42:33;99760.95;;;10.15;68.58
50682;BME280;36779;52.168;20.878;2023-04-15T09:45:12;99763.34;;;10.18;68.74
50682;BME280;36779;52.168;20.878;2023-04-15T09:47:44;99767.45;;;10.20;68.59
50682;BME280;36779;52.168;20.878;2023-04-15T09:50:20;99767.30;;;10.20;68.70
50682;BME280;36779;52.168;20.878;2023-04-15T09:52:52;99769.34;;;10.23;68.64
50682;BME280;36779;52.168;20.878;2023-04-15T09:55:24;99767.30;;;10.25;68.68
50682;BME280;36779;52.168;20.878;2023-04-15T09:57:56;99769.01;;;10.24;68.72
50682;BME280;36779;52.168;20.878;2023-04-15T10:00:29;99771.23;;;10.25;68.68
50682;BME280;36779;52.168;20.878;2023-04-15T10:03:01;99772.46;;;10.25;68.85
50682;BME280;36779;52.168;20.878;2023-04-15T10:05:35;99770.63;;;10.25;68.94
50682;BME280;36779;52.168;20.878;2023-04-15T10:08:08;99772.64;;;10.22;68.71
50682;BME280;36779;52.168;20.878;2023-04-15T10:10:42;99774.42;;;10.20;68.82
50682;BME280;36779;52.168;20.878;2023-04-15T10:13:18;99773.33;;;10.17;68.68
50682;BME280;36779;52.168;20.878;2023-04-15T10:15:56;99770.92;;;10.18;68.84
50682;BME280;36779;52.168;20.878;2023-04-15T10:18:29;99772.46;;;10.23;68.87
50682;BME280;36779;52.168;20.878;2023-04-15T10:21:05;99771.02;;;10.28;69.01
50682;BME280;36779;52.168;20.878;2023-04-15T10:23:39;99770.38;;;10.35;69.02
50682;BME280;36779;52.168;20.878;2023-04-15T10:26:13;99772.92;;;10.43;69.04
50682;BME280;36779;52.168;20.878;2023-04-15T10:28:47;99775.69;;;10.48;68.93
50682;BME280;36779;52.168;20.878;2023-04-15T10:31:20;99772.73;;;10.55;68.99
50682;BME280;36779;52.168;20.878;2023-04-15T10:33:55;99775.56;;;10.61;69.11
50682;BME280;36779;52.168;20.878;2023-04-15T10:36:28;99774.44;;;10.65;69.07
50682;BME280;36779;52.168;20.878;2023-04-15T10:39:00;99771.58;;;10.70;68.93
50682;BME280;36779;52.168;20.878;2023-04-15T10:41:35;99771.23;;;10.74;69.00
50682;BME280;36779;52.168;20.878;2023-04-15T10:44:07;99771.36;;;10.81;69.06
50682;BME280;36779;52.168;20.878;2023-04-15T10:46:41;99769.94;;;10.87;69.11
50682;BME280;36779;52.168;20.878;2023-04-15T10:49:15;99770.40;;;10.88;68.95
50682;BME280;36779;52.168;20.878;2023-04-15T10:51:56;99771.23;;;10.85;68.95
50682;BME280;36779;52.168;20.878;2023-04-15T10:54:38;99773.88;;;10.87;69.07
50682;BME280;36779;52.168;20.878;2023-04-15T10:57:16;99774.89;;;10.85;68.96
50682;BME280;36779;52.168;20.878;2023-04-15T11:00:09;99776.75;;;10.80;68.93
50682;BME280;36779;52.168;20.878;2023-04-15T11:02:47;99783.14;;;10.73;68.94
50682;BME280;36779;52.168;20.878;2023-04-15T11:08:14;99789.86;;;10.71;69.18
50682;BME280;36779;52.168;20.878;2023-04-15T11:10:55;99785.27;;;10.77;69.29
50682;BME280;36779;52.168;20.878;2023-04-15T11:13:30;99783.52;;;10.80;69.18
50682;BME280;36779;52.168;20.878;2023-04-15T11:16:04;99782.88;;;10.86;69.29
50682;BME280;36779;52.168;20.878;2023-04-15T11:18:37;99779.77;;;10.90;69.06
50682;BME280;36779;52.168;20.878;2023-04-15T11:21:12;99783.54;;;10.92;69.23
50682;BME280;36779;52.168;20.878;2023-04-15T11:23:44;99785.42;;;10.97;69.33
50682;BME280;36779;52.168;20.878;2023-04-15T11:26:17;99784.04;;;11.03;69.28
50682;BME280;36779;52.168;20.878;2023-04-15T11:28:49;99785.83;;;11.09;69.25
50682;BME280;36779;52.168;20.878;2023-04-15T11:31:22;99788.55;;;11.13;69.21
50682;BME280;36779;52.168;20.878;2023-04-15T11:33:58;99793.06;;;11.20;69.27
50682;BME280;36779;52.168;20.878;2023-04-15T11:36:35;99795.60;;;11.30;69.16
50682;BME280;36779;52.168;20.878;2023-04-15T11:39:07;99793.25;;;11.37;69.17
50682;BME280;36779;52.168;20.878;2023-04-15T11:41:41;99797.76;;;11.48;69.39
50682;BME280;36779;52.168;20.878;2023-04-15T11:44:18;99795.27;;;11.59;69.53
50682;BME280;36779;52.168;20.878;2023-04-15T11:46:55;99792.73;;;11.69;69.61
50682;BME280;36779;52.168;20.878;2023-04-15T11:49:34;99797.49;;;11.77;69.40
50682;BME280;36779;52.168;20.878;2023-04-15T11:52:12;99798.16;;;11.82;69.29
50682;BME280;36779;52.168;20.878;2023-04-15T11:54:44;99796.83;;;11.89;69.40
50682;BME280;36779;52.168;20.878;2023-04-15T11:57:17;99799.49;;;11.98;69.25
50682;BME280;36779;52.168;20.878;2023-04-15T11:59:50;99798.96;;;12.05;69.32
50682;BME280;36779;52.168;20.878;2023-04-15T12:02:31;99801.67;;;12.08;69.37
50682;BME280;36779;52.168;20.878;2023-04-15T12:05:09;99804.60;;;12.11;69.03
50682;BME280;36779;52.168;20.878;2023-04-15T12:08:01;99809.30;;;12.09;68.95
50682;BME280;36779;52.168;20.878;2023-04-15T12:10:33;99814.34;;;12.05;68.89
50682;BME280;36779;52.168;20.878;2023-04-15T12:13:08;99811.94;;;12.00;69.02
50682;BME280;36779;52.168;20.878;2023-04-15T12:15:40;99816.49;;;12.00;68.80
50682;BME280;36779;52.168;20.878;2023-04-15T12:18:19;99818.88;;;12.03;69.13
50682;BME280;36779;52.168;20.878;2023-04-15T12:20:55;99821.66;;;12.09;69.17
50682;BME280;36779;52.168;20.878;2023-04-15T12:23:29;99822.29;;;12.15;69.08
50682;BME280;36779;52.168;20.878;2023-04-15T12:26:05;99827.61;;;12.20;69.12
50682;BME280;36779;52.168;20.878;2023-04-15T12:28:40;99826.71;;;12.19;68.92
50682;BME280;36779;52.168;20.878;2023-04-15T12:31:14;99825.41;;;12.17;68.91
50682;BME280;36779;52.168;20.878;2023-04-15T12:33:48;99830.35;;;12.16;68.79
50682;BME280;36779;52.168;20.878;2023-04-15T12:36:20;99834.69;;;12.15;68.74
50682;BME280;36779;52.168;20.878;2023-04-15T12:38:53;99836.86;;;12.17;68.95
50682;BME280;36779;52.168;20.878;2023-04-15T12:41:25;99841.19;;;12.24;69.01
50682;BME280;36779;52.168;20.878;2023-04-15T12:43:58;99840.88;;;12.22;68.73
50682;BME280;36779;52.168;20.878;2023-04-15T12:46:31;99841.54;;;12.25;69.02
50682;BME280;36779;52.168;20.878;2023-04-15T12:49:04;99843.10;;;12.39;69.20
50682;BME280;36779;52.168;20.878;2023-04-15T12:51:36;99842.45;;;12.47;68.93
50682;BME280;36779;52.168;20.878;2023-04-15T12:54:09;99846.65;;;12.50;68.99
50682;BME280;36779;52.168;20.878;2023-04-15T12:56:41;99842.04;;;12.54;68.76
50682;BME280;36779;52.168;20.878;2023-04-15T12:59:13;99839.34;;;12.63;68.93
50682;BME280;36779;52.168;20.878;2023-04-15T13:01:47;99838.10;;;12.74;69.21
50682;BME280;36779;52.168;20.878;2023-04-15T13:04:20;99844.34;;;12.83;69.01
50682;BME280;36779;52.168;20.878;2023-04-15T13:06:52;99849.08;;;12.88;68.94
50682;BME280;36779;52.168;20.878;2023-04-15T13:09:24;99850.63;;;12.91;68.70
50682;BME280;36779;52.168;20.878;2023-04-15T13:11:57;99847.65;;;12.93;68.55
50682;BME280;36779;52.168;20.878;2023-04-15T13:14:30;99849.28;;;12.96;68.74
50682;BME280;36779;52.168;20.878;2023-04-15T13:17:02;99849.37;;;13.05;68.78
50682;BME280;36779;52.168;20.878;2023-04-15T13:19:40;99852.50;;;13.05;68.88
50682;BME280;36779;52.168;20.878;2023-04-15T13:22:12;99853.98;;;13.06;68.52
50682;BME280;36779;52.168;20.878;2023-04-15T13:24:46;99862.13;;;13.09;68.69
50682;BME280;36779;52.168;20.878;2023-04-15T13:27:18;99862.88;;;13.14;68.50
50682;BME280;36779;52.168;20.878;2023-04-15T13:29:51;99867.31;;;13.13;68.17
50682;BME280;36779;52.168;20.878;2023-04-15T13:32:23;99871.39;;;13.05;68.16
50682;BME280;36779;52.168;20.878;2023-04-15T13:34:56;99870.59;;;12.91;68.20
50682;BME280;36779;52.168;20.878;2023-04-15T13:37:30;99872.52;;;12.78;68.21
50682;BME280;36779;52.168;20.878;2023-04-15T13:40:02;99878.27;;;12.75;68.36
50682;BME280;36779;52.168;20.878;2023-04-15T13:42:36;99881.23;;;12.74;68.20
50682;BME280;36779;52.168;20.878;2023-04-15T13:45:10;99884.73;;;12.71;68.10